createdAt,value
2019-02-20T00:01:28.998Z,82.81
2019-02-20T00:03:56.191Z,82.86
2019-02-20T00:06:30.552Z,82.87
2019-02-20T00:08:59.400Z,82.89
2019-02-20T00:11:30.695Z,82.92
2019-02-20T00:14:03.171Z,82.91
2019-02-20T00:16:30.432Z,82.95
2019-02-20T00:18:59.602Z,83.05
2019-02-20T00:21:29.115Z,83.10
2019-02-20T00:23:56.970Z,83.11
2019-02-20T00:26:32.314Z,83.11
2019-02-20T00:29:02.111Z,83.16
2019-02-20T00:31:31.389Z,83.18
2019-02-20T00:33:59.836Z,83.20
2019-02-20T00:36:29.928Z,83.21
2019-02-20T00:38:57.091Z,83.26
2019-02-20T00:41:44.175Z,83.34
2019-02-20T00:44:26.454Z,83.37
2019-02-20T00:47:11.738Z,83.36
2019-02-20T00:49:42.161Z,83.41
2019-02-20T00:52:18.265Z,83.46
2019-02-20T00:54:46.922Z,83.50
2019-02-20T00:57:19.331Z,83.51
2019-02-20T00:59:47.794Z,83.52
2019-02-20T01:02:16.651Z,83.48
2019-02-20T01:04:43.818Z,83.46
2019-02-20T01:07:14.137Z,83.46
2019-02-20T01:09:44.040Z,83.51
2019-02-20T01:12:11.312Z,83.44
2019-02-20T01:14:41.453Z,83.40
2019-02-20T01:17:09.506Z,83.43
2019-02-20T01:19:41.039Z,83.36
2019-02-20T01:22:09.297Z,83.35
2019-02-20T01:24:39.872Z,83.35
2019-02-20T01:27:08.867Z,83.29
2019-02-20T01:29:40.453Z,83.24
2019-02-20T01:32:07.582Z,83.21
2019-02-20T01:34:34.641Z,83.21
2019-02-20T01:37:01.702Z,83.17
2019-02-20T01:39:28.769Z,83.16
2019-02-20T01:41:55.822Z,83.15
2019-02-20T01:44:22.895Z,83.13
2019-02-20T01:46:49.963Z,83.08
2019-02-20T01:49:17.056Z,83.04
2019-02-20T01:51:45.074Z,83.04
2019-02-20T01:54:12.196Z,83.04
2019-02-20T01:56:39.254Z,83.02
2019-02-20T01:59:06.325Z,83.05
2019-02-20T02:01:33.380Z,83.04
2019-02-20T02:04:00.455Z,83.06
2019-02-20T02:06:27.539Z,83.06
2019-02-20T02:08:54.593Z,83.06
2019-02-20T02:11:21.653Z,83.00
2019-02-20T02:13:48.715Z,82.99
2019-02-20T02:16:15.775Z,82.85
2019-02-20T02:18:42.830Z,82.71
2019-02-20T02:21:09.911Z,82.52
2019-02-20T02:23:36.977Z,82.39
2019-02-20T02:26:10.704Z,82.21
2019-02-20T02:28:33.035Z,82.07
2019-02-20T02:31:00.094Z,81.81
2019-02-20T02:33:27.147Z,81.71
2019-02-20T02:35:54.219Z,81.68
2019-02-20T02:38:21.274Z,81.67
2019-02-20T02:40:48.343Z,81.62
2019-02-20T02:43:15.400Z,81.49
2019-02-20T02:45:42.468Z,81.47
2019-02-20T02:48:09.544Z,81.33
2019-02-20T02:50:36.632Z,81.20
2019-02-20T02:53:03.737Z,81.15
2019-02-20T02:55:30.791Z,81.07
2019-02-20T02:57:57.859Z,81.06
2019-02-20T03:00:24.917Z,81.10
2019-02-20T03:02:51.996Z,81.10
2019-02-20T03:05:19.076Z,80.95
2019-02-20T03:07:46.140Z,80.97
2019-02-20T03:10:13.267Z,80.93
2019-02-20T03:12:40.389Z,80.87
2019-02-20T03:15:07.470Z,80.86
2019-02-20T03:17:34.535Z,80.85
2019-02-20T03:20:01.623Z,80.83
2019-02-20T03:22:28.755Z,80.72
2019-02-20T03:24:55.873Z,80.59
2019-02-20T03:27:22.938Z,80.53
2019-02-20T03:29:50.139Z,80.39
2019-02-20T03:32:17.213Z,80.26
2019-02-20T03:34:44.284Z,80.03
2019-02-20T03:37:11.351Z,79.82
2019-02-20T03:39:38.421Z,79.62
2019-02-20T03:42:05.491Z,79.27
2019-02-20T03:44:32.558Z,78.96
2019-02-20T03:46:59.621Z,78.49
2019-02-20T03:49:26.695Z,77.98
2019-02-20T03:51:53.779Z,77.94
2019-02-20T03:54:20.853Z,77.74
2019-02-20T03:56:48.024Z,77.45
2019-02-20T03:59:15.077Z,77.19
2019-02-20T04:01:42.189Z,77.25
2019-02-20T04:04:09.252Z,76.87
2019-02-20T04:06:36.340Z,76.37
2019-02-20T04:09:05.029Z,76.64
2019-02-20T04:11:32.092Z,76.36
2019-02-20T04:13:59.170Z,75.84
2019-02-20T04:16:26.267Z,75.56
2019-02-20T04:18:53.347Z,75.52
2019-02-20T04:21:20.396Z,74.72
2019-02-20T04:23:47.472Z,74.80
2019-02-20T04:26:14.559Z,73.41
2019-02-20T04:28:41.668Z,72.69
2019-02-20T04:31:08.752Z,71.76
2019-02-20T04:33:35.812Z,72.57
2019-02-20T04:36:02.873Z,72.94
2019-02-20T04:38:30.041Z,70.96
2019-02-20T04:40:57.107Z,70.90
2019-02-20T04:43:24.159Z,71.19
2019-02-20T04:45:51.217Z,70.11
2019-02-20T04:48:18.276Z,70.48
2019-02-20T04:50:45.357Z,70.52
2019-02-20T04:53:12.423Z,70.06
2019-02-20T04:55:39.482Z,69.25
2019-02-20T04:58:14.266Z,68.98
2019-02-20T05:00:41.415Z,68.55
2019-02-20T05:03:08.486Z,68.25
2019-02-20T05:05:35.544Z,69.01
2019-02-20T05:08:02.600Z,68.49
2019-02-20T05:10:29.672Z,68.37
2019-02-20T05:12:56.740Z,68.67
2019-02-20T05:15:23.829Z,68.11
2019-02-20T05:17:50.915Z,67.71
2019-02-20T05:20:17.979Z,66.65
2019-02-20T05:22:45.033Z,65.56
2019-02-20T05:25:12.108Z,65.74
2019-02-20T05:27:39.165Z,64.88
2019-02-20T05:30:06.470Z,62.82
2019-02-20T05:32:33.536Z,63.81
2019-02-20T05:35:00.734Z,64.58
2019-02-20T05:37:27.772Z,64.37
2019-02-20T05:39:54.819Z,65.19
2019-02-20T05:42:21.870Z,64.73
2019-02-20T05:44:48.981Z,62.51
2019-02-20T05:47:16.027Z,61.10
2019-02-20T05:49:43.088Z,59.93
2019-02-20T05:52:10.214Z,60.38
2019-02-20T05:54:38.374Z,60.48
2019-02-20T05:57:05.455Z,60.71
2019-02-20T05:59:32.534Z,60.37
2019-02-20T06:01:59.587Z,60.01
2019-02-20T06:04:26.651Z,58.37
2019-02-20T06:06:53.708Z,59.50
2019-02-20T06:09:20.798Z,59.65
2019-02-20T06:11:47.885Z,59.32
2019-02-20T06:14:14.996Z,59.52
2019-02-20T06:16:43.924Z,59.89
2019-02-20T06:19:11.010Z,59.03
2019-02-20T06:21:38.285Z,59.32
2019-02-20T06:24:05.350Z,59.29
2019-02-20T06:26:32.524Z,59.53
2019-02-20T06:28:59.634Z,58.51
2019-02-20T06:31:26.732Z,58.23
2019-02-20T06:33:53.795Z,58.98
2019-02-20T06:36:20.856Z,58.16
2019-02-20T06:38:47.921Z,57.17
2019-02-20T06:41:14.990Z,55.97
2019-02-20T06:43:42.052Z,54.89
2019-02-20T06:46:09.106Z,55.21
2019-02-20T06:48:36.192Z,54.82
2019-02-20T06:51:08.404Z,55.16
2019-02-20T06:53:35.455Z,54.20
2019-02-20T06:56:04.841Z,55.26
2019-02-20T06:58:31.894Z,55.18
2019-02-20T07:00:58.963Z,55.96
2019-02-20T07:03:26.060Z,55.54
2019-02-20T07:06:36.149Z,54.89
2019-02-20T07:09:33.681Z,54.86
2019-02-20T07:12:24.256Z,54.83
2019-02-20T07:15:10.010Z,54.69
2019-02-20T07:18:20.981Z,54.39
2019-02-20T07:21:48.090Z,54.32
2019-02-20T07:25:03.212Z,54.23
2019-02-20T07:27:49.246Z,53.73
2019-02-20T07:30:19.046Z,53.97
2019-02-20T07:32:46.108Z,54.09
2019-02-20T07:35:13.163Z,52.40
2019-02-20T07:37:40.297Z,52.88
2019-02-20T07:40:11.619Z,49.60
2019-02-20T07:42:38.711Z,51.26
2019-02-20T07:45:07.641Z,48.72
2019-02-20T07:47:34.708Z,48.80
2019-02-20T07:50:01.762Z,49.17
2019-02-20T07:52:28.866Z,48.25
2019-02-20T07:54:55.926Z,49.00
2019-02-20T07:57:23.029Z,48.53
2019-02-20T07:59:50.092Z,48.47
2019-02-20T08:02:17.151Z,48.64
2019-02-20T08:04:44.248Z,48.54
2019-02-20T08:07:11.336Z,49.50
2019-02-20T08:09:38.391Z,48.37
2019-02-20T08:12:05.451Z,48.61
2019-02-20T08:14:32.500Z,47.96
2019-02-20T08:16:59.552Z,48.11
2019-02-20T08:19:26.637Z,48.57
2019-02-20T08:21:53.682Z,48.30
2019-02-20T08:24:20.736Z,48.33
2019-02-20T08:26:47.822Z,48.60
2019-02-20T08:29:14.879Z,49.32
2019-02-20T08:31:41.931Z,47.46
2019-02-20T08:34:09.008Z,47.73
2019-02-20T08:36:36.085Z,46.98
2019-02-20T08:39:04.751Z,45.73
2019-02-20T08:41:31.811Z,47.08
2019-02-20T08:43:58.870Z,46.53
2019-02-20T08:46:25.937Z,47.62
2019-02-20T08:48:52.993Z,47.06
2019-02-20T08:51:20.056Z,46.29
2019-02-20T08:53:47.115Z,45.87
2019-02-20T08:56:14.195Z,46.74
2019-02-20T08:58:41.265Z,46.45
2019-02-20T09:01:08.320Z,45.97
2019-02-20T09:03:35.390Z,46.18
2019-02-20T09:06:02.448Z,46.44
2019-02-20T09:08:29.521Z,45.14
2019-02-20T09:10:56.640Z,46.10
2019-02-20T09:13:23.809Z,46.60
2019-02-20T09:15:50.874Z,46.59
2019-02-20T09:18:19.704Z,44.45
2019-02-20T09:20:46.769Z,45.63
2019-02-20T09:23:13.832Z,46.48
2019-02-20T09:25:41.866Z,47.16
2019-02-20T09:28:09.098Z,47.50
2019-02-20T09:30:36.164Z,46.70
2019-02-20T09:33:03.220Z,47.58
2019-02-20T09:35:30.282Z,48.04
2019-02-20T09:37:57.350Z,47.41
2019-02-20T09:40:24.405Z,46.60
2019-02-20T09:42:51.533Z,45.97
2019-02-20T09:45:18.538Z,46.98
2019-02-20T09:47:45.627Z,47.48
2019-02-20T09:50:12.694Z,47.52
2019-02-20T09:52:39.750Z,45.59
2019-02-20T09:55:07.903Z,44.49
2019-02-20T09:57:34.993Z,42.71
2019-02-20T10:00:02.090Z,44.74
2019-02-20T10:02:29.125Z,44.13
2019-02-20T10:04:56.179Z,45.53
2019-02-20T10:07:23.259Z,46.15
2019-02-20T10:09:50.319Z,45.63
2019-02-20T10:12:17.378Z,44.81
2019-02-20T10:14:44.437Z,42.83
2019-02-20T10:17:11.533Z,43.50
2019-02-20T10:19:38.593Z,44.34
2019-02-20T10:22:05.661Z,45.10
2019-02-20T10:24:32.762Z,44.76
2019-02-20T10:27:00.894Z,45.44
2019-02-20T10:29:28.282Z,45.78
2019-02-20T10:31:55.359Z,45.93
2019-02-20T10:34:22.421Z,46.36
2019-02-20T10:36:49.482Z,45.99
2019-02-20T10:39:16.556Z,45.82
2019-02-20T10:41:43.622Z,45.95
2019-02-20T10:44:10.695Z,46.21
2019-02-20T10:46:37.792Z,46.53
2019-02-20T10:49:04.896Z,46.15
2019-02-20T10:51:31.959Z,46.30
2019-02-20T10:53:59.046Z,44.89
2019-02-20T10:56:26.101Z,44.17
2019-02-20T10:58:53.160Z,43.64
2019-02-20T11:01:20.327Z,44.04
2019-02-20T11:03:47.428Z,44.63
2019-02-20T11:06:14.492Z,45.26
2019-02-20T11:09:08.748Z,44.52
2019-02-20T11:11:36.091Z,44.66
2019-02-20T11:14:03.160Z,43.76
2019-02-20T11:16:30.211Z,44.45
2019-02-20T11:18:57.331Z,44.83
2019-02-20T11:21:24.391Z,44.23
2019-02-20T11:23:51.697Z,44.41
2019-02-20T11:26:18.882Z,44.44
2019-02-20T11:28:45.957Z,44.66
2019-02-20T11:31:13.027Z,44.65
2019-02-20T11:33:40.101Z,44.49
2019-02-20T11:36:07.160Z,44.56
2019-02-20T11:38:34.231Z,44.92
2019-02-20T11:41:01.292Z,45.15
2019-02-20T11:43:28.426Z,45.07
2019-02-20T11:45:55.482Z,44.79
2019-02-20T11:48:22.530Z,45.08
2019-02-20T11:50:49.592Z,45.06
2019-02-20T11:53:16.894Z,45.34
2019-02-20T11:55:43.960Z,45.49
2019-02-20T11:58:11.011Z,45.88
2019-02-20T12:00:38.083Z,45.26
2019-02-20T12:03:05.142Z,44.86
2019-02-20T12:05:32.204Z,44.85
2019-02-20T12:07:59.262Z,44.58
2019-02-20T12:10:26.326Z,43.34
2019-02-20T12:12:53.388Z,44.04
2019-02-20T12:15:20.463Z,43.61
2019-02-20T12:17:47.520Z,43.19
2019-02-20T12:20:14.579Z,41.11
2019-02-20T12:22:41.667Z,42.58
2019-02-20T12:25:08.834Z,42.86
2019-02-20T12:27:35.889Z,42.55
2019-02-20T12:30:03.671Z,43.15
2019-02-20T12:32:30.989Z,43.49
2019-02-20T12:34:58.088Z,43.87
2019-02-20T12:37:25.162Z,44.17
2019-02-20T12:39:52.219Z,43.69
2019-02-20T12:42:19.284Z,44.61
2019-02-20T12:44:46.345Z,44.63
2019-02-20T12:47:13.399Z,44.87
2019-02-20T12:49:40.456Z,45.02
2019-02-20T12:52:07.512Z,45.14
2019-02-20T12:54:34.574Z,45.37
2019-02-20T12:57:01.629Z,45.55
2019-02-20T12:59:28.727Z,45.73
2019-02-20T13:01:55.798Z,45.75
2019-02-20T13:04:24.594Z,45.52
2019-02-20T13:06:59.226Z,45.60
2019-02-20T13:09:20.665Z,45.94
2019-02-20T13:11:47.732Z,45.95
2019-02-20T13:14:14.797Z,46.45
2019-02-20T13:16:41.865Z,46.61
2019-02-20T13:19:08.919Z,46.66
2019-02-20T13:21:35.969Z,46.91
2019-02-20T13:24:03.039Z,47.09
2019-02-20T13:26:30.116Z,47.01
2019-02-20T13:28:57.186Z,47.10
2019-02-20T13:31:24.244Z,47.36
2019-02-20T13:33:51.312Z,47.53
2019-02-20T13:36:18.470Z,47.71
2019-02-20T13:38:45.543Z,47.92
2019-02-20T13:41:13.245Z,47.83
2019-02-20T13:43:40.299Z,47.72
2019-02-20T13:46:07.365Z,47.61
2019-02-20T13:48:34.981Z,47.69
2019-02-20T13:51:02.175Z,47.95
2019-02-20T13:53:29.255Z,47.93
2019-02-20T13:55:56.321Z,47.79
2019-02-20T13:58:23.781Z,48.00
2019-02-20T14:00:50.839Z,48.00
2019-02-20T14:03:17.902Z,48.07
2019-02-20T14:05:44.951Z,46.91
2019-02-20T14:08:12.043Z,47.45
2019-02-20T14:10:39.097Z,47.77
2019-02-20T14:13:06.166Z,47.97
2019-02-20T14:15:33.220Z,48.25
2019-02-20T14:18:00.674Z,48.33
2019-02-20T14:20:27.768Z,48.52
2019-02-20T14:22:54.822Z,48.52
2019-02-20T14:25:21.887Z,48.51
2019-02-20T14:27:49.806Z,48.71
2019-02-20T14:30:16.870Z,48.31
2019-02-20T14:32:43.930Z,48.18
2019-02-20T14:35:11.034Z,47.29
2019-02-20T14:37:39.380Z,47.51
2019-02-20T14:40:06.733Z,47.26
2019-02-20T14:42:33.791Z,47.62
2019-02-20T14:45:00.900Z,47.86
2019-02-20T14:47:28.038Z,47.73
2019-02-20T14:49:55.111Z,47.59
2019-02-20T14:52:22.264Z,47.88
2019-02-20T14:54:49.379Z,47.92
2019-02-20T14:57:19.624Z,48.16
2019-02-20T14:59:45.724Z,48.37
2019-02-20T15:02:12.803Z,48.33
2019-02-20T15:04:41.675Z,48.44
2019-02-20T15:07:08.752Z,48.55
2019-02-20T15:09:35.927Z,48.59
2019-02-20T15:12:03.016Z,48.79
2019-02-20T15:14:30.493Z,48.94
2019-02-20T15:16:57.550Z,49.10
2019-02-20T15:19:24.625Z,49.08
2019-02-20T15:21:51.730Z,49.22
2019-02-20T15:24:18.806Z,49.39
2019-02-20T15:26:45.876Z,49.52
2019-02-20T15:29:12.966Z,49.64
2019-02-20T15:31:40.076Z,49.76
2019-02-20T15:34:07.436Z,49.91
2019-02-20T15:36:34.494Z,50.07
2019-02-20T15:39:04.477Z,50.20
2019-02-20T15:41:31.550Z,50.22
2019-02-20T15:43:58.620Z,50.40
2019-02-20T15:46:25.726Z,50.48
2019-02-20T15:48:52.903Z,50.59
2019-02-20T15:51:20.356Z,50.71
2019-02-20T15:53:47.435Z,50.74
2019-02-20T15:56:14.503Z,50.80
2019-02-20T15:58:41.585Z,50.83
2019-02-20T16:01:09.068Z,50.91
2019-02-20T16:03:37.238Z,51.00
2019-02-20T16:06:05.450Z,51.07
2019-02-20T16:08:32.647Z,51.15
2019-02-20T16:11:00.027Z,51.28
2019-02-20T16:13:27.206Z,51.38
2019-02-20T16:15:54.403Z,51.42
2019-02-20T16:18:21.490Z,51.51
2019-02-20T16:20:48.545Z,51.60
2019-02-20T16:23:15.661Z,51.67
2019-02-20T16:25:44.790Z,50.95
2019-02-20T16:28:11.937Z,51.46
2019-02-20T16:30:39.003Z,51.70
2019-02-20T16:33:06.064Z,51.88
2019-02-20T16:35:33.145Z,51.98
2019-02-20T16:38:00.232Z,52.04
2019-02-20T16:40:27.300Z,52.20
2019-02-20T16:42:54.498Z,52.33
2019-02-20T16:45:22.666Z,52.36
2019-02-20T16:47:50.141Z,52.45
2019-02-20T16:50:17.245Z,52.52
2019-02-20T16:52:44.326Z,52.65
2019-02-20T16:55:11.399Z,52.73
2019-02-20T16:57:38.486Z,52.82
2019-02-20T17:00:06.017Z,52.87
2019-02-20T17:02:33.088Z,52.81
2019-02-20T17:05:00.285Z,52.83
2019-02-20T17:07:28.149Z,52.90
2019-02-20T17:09:55.311Z,53.00
2019-02-20T17:12:23.657Z,53.09
2019-02-20T17:14:50.735Z,53.15
2019-02-20T17:17:17.798Z,53.24
2019-02-20T17:19:44.934Z,53.37
2019-02-20T17:22:11.992Z,53.35
2019-02-20T17:24:39.352Z,53.44
2019-02-20T17:27:06.424Z,53.48
2019-02-20T17:29:33.588Z,53.49
2019-02-20T17:32:00.639Z,53.55
2019-02-20T17:34:27.976Z,53.63
2019-02-20T17:36:55.170Z,53.70
2019-02-20T17:39:22.243Z,53.79
2019-02-20T17:41:49.416Z,53.91
2019-02-20T17:44:17.909Z,54.01
2019-02-20T17:46:44.978Z,54.07
2019-02-20T17:49:12.092Z,54.15
2019-02-20T17:51:39.151Z,54.25
2019-02-20T17:54:06.275Z,54.35
2019-02-20T17:56:33.473Z,54.36
2019-02-20T17:59:00.715Z,54.45
2019-02-20T18:01:28.043Z,54.58
2019-02-20T18:03:55.251Z,54.79
2019-02-20T18:06:22.496Z,54.97
2019-02-20T18:08:49.800Z,54.99
2019-02-20T18:11:17.036Z,54.95
2019-02-20T18:13:45.362Z,54.95
2019-02-20T18:16:12.430Z,54.95
2019-02-20T18:18:39.496Z,55.04
2019-02-20T18:21:07.823Z,55.11
2019-02-20T18:23:35.891Z,55.14
2019-02-20T18:26:03.224Z,55.17
2019-02-20T18:28:30.514Z,55.25
2019-02-20T18:30:57.589Z,55.35
2019-02-20T18:33:24.673Z,55.37
2019-02-20T18:35:51.809Z,55.43
2019-02-20T18:38:19.195Z,55.50
2019-02-20T18:40:46.403Z,55.54
2019-02-20T18:43:13.456Z,55.54
2019-02-20T18:45:40.611Z,55.55
2019-02-20T18:48:07.692Z,55.64
2019-02-20T18:50:34.753Z,55.82
2019-02-20T18:53:02.002Z,55.92
2019-02-20T18:55:29.199Z,55.94
2019-02-20T18:57:56.448Z,55.91
2019-02-20T19:00:23.518Z,55.85
2019-02-20T19:02:50.752Z,55.81
2019-02-20T19:05:19.020Z,55.87
2019-02-20T19:07:48.510Z,56.07
2019-02-20T19:10:20.907Z,56.27
2019-02-20T19:13:22.276Z,56.31
2019-02-20T19:16:17.332Z,56.21
2019-02-20T19:19:44.291Z,56.24
2019-02-20T19:22:33.600Z,56.28
2019-02-20T19:25:54.427Z,56.30
2019-02-20T19:29:03.971Z,56.38
2019-02-20T19:32:02.544Z,56.42
2019-02-20T19:35:14.056Z,56.47
2019-02-20T19:38:41.058Z,56.52
2019-02-20T19:41:58.785Z,56.53
2019-02-20T19:44:53.693Z,56.55
2019-02-20T19:47:50.460Z,56.59
2019-02-20T19:50:33.095Z,56.58
2019-02-20T19:53:24.760Z,56.67
2019-02-20T19:56:33.845Z,56.74
2019-02-20T19:59:44.907Z,56.76
2019-02-20T20:02:49.481Z,56.85
2019-02-20T20:06:22.809Z,56.83
2019-02-20T20:08:58.355Z,56.95
2019-02-20T20:12:01.934Z,57.04
2019-02-20T20:14:54.601Z,57.13
2019-02-20T20:18:08.543Z,57.18
2019-02-20T20:21:01.778Z,57.24
2019-02-20T20:24:02.308Z,57.18
2019-02-20T20:26:42.903Z,57.16
2019-02-20T20:29:35.335Z,57.15
2019-02-20T20:32:52.972Z,57.24
2019-02-20T20:35:31.141Z,57.31
2019-02-20T20:38:51.760Z,57.29
2019-02-20T20:41:56.488Z,57.33
2019-02-20T20:44:43.342Z,57.38
2019-02-20T20:47:49.682Z,57.40
2019-02-20T20:50:45.600Z,57.44
2019-02-20T20:53:49.445Z,57.44
2019-02-20T20:56:57.340Z,57.51
2019-02-20T21:00:04.009Z,57.59
2019-02-20T21:02:58.128Z,57.65
2019-02-20T21:06:10.180Z,57.73
2019-02-20T21:08:44.339Z,57.74
2019-02-20T21:12:17.766Z,57.75
2019-02-20T21:15:29.950Z,57.82
2019-02-20T21:18:45.253Z,57.83
2019-02-20T21:21:32.753Z,57.81
2019-02-20T21:24:27.337Z,57.88
2019-02-20T21:27:36.503Z,57.85
2019-02-20T21:30:44.464Z,57.86
2019-02-20T21:33:59.138Z,57.83
2019-02-20T21:36:38.170Z,57.71
2019-02-20T21:39:36.032Z,57.73
2019-02-20T21:42:46.592Z,57.72
2019-02-20T21:46:00.656Z,57.72
2019-02-20T21:48:58.451Z,57.68
2019-02-20T21:52:19.483Z,57.63
2019-02-20T21:55:01.826Z,57.57
2019-02-20T21:58:17.023Z,57.70
2019-02-20T22:01:13.358Z,57.70
2019-02-20T22:04:02.415Z,57.76
2019-02-20T22:07:14.471Z,57.93
2019-02-20T22:10:38.768Z,58.07
2019-02-20T22:14:21.326Z,58.21
2019-02-20T22:17:25.075Z,58.25
2019-02-20T22:20:46.103Z,58.16
2019-02-20T22:23:49.804Z,58.14
2019-02-20T22:26:59.576Z,58.22
2019-02-20T22:30:18.167Z,58.23
2019-02-20T22:33:23.084Z,58.16
2019-02-20T22:36:20.162Z,58.10
2019-02-20T22:39:08.763Z,58.12
2019-02-20T22:42:11.985Z,58.12
2019-02-20T22:45:21.652Z,58.11
2019-02-20T22:48:51.600Z,58.08
2019-02-20T22:51:55.693Z,58.17
2019-02-20T22:55:05.405Z,58.25
2019-02-20T22:58:15.616Z,58.35
2019-02-20T23:01:51.931Z,58.35
2019-02-20T23:05:13.079Z,58.58
2019-02-20T23:08:10.553Z,58.93
2019-02-20T23:11:14.694Z,59.05
2019-02-20T23:14:38.567Z,59.16
2019-02-20T23:17:05.648Z,59.18
2019-02-20T23:19:32.707Z,59.13
2019-02-20T23:21:59.797Z,59.23
2019-02-20T23:24:26.872Z,59.25
2019-02-20T23:26:53.956Z,59.30
2019-02-20T23:29:21.026Z,59.25
2019-02-20T23:31:48.086Z,59.15
2019-02-20T23:34:15.213Z,59.07
2019-02-20T23:36:42.289Z,59.02
2019-02-20T23:39:09.672Z,59.05
2019-02-20T23:41:36.731Z,59.06
2019-02-20T23:44:03.789Z,59.13
2019-02-20T23:46:30.911Z,59.10
2019-02-20T23:48:58.021Z,59.03
2019-02-20T23:51:26.853Z,59.17
2019-02-20T23:53:53.915Z,59.35
2019-02-20T23:56:20.974Z,59.52
2019-02-20T23:58:48.078Z,59.70
